Terminal Aerodrome Forecast
Issued by NWS Medford, OR

Current Version | Previous Version | Text Only | Print | Product List | Glossary On
Versions: 1 2 3 4 5 6 7 8 9 10 11 12 13 14 15 16 17 18
000
FTUS46 KMFR 182300
TAFMFR
TAF
KMFR 182339Z 1900/1924 30009KT P6SM VCSH SCT070 SCT100
     FM190300 33005KT P6SM FEW060 FEW100
     FM191100 00000KT P6SM FEW015 SCT025
     FM191600 36002KT P6SM FEW035
     FM192200 30005KT P6SM SKC=

USA.gov is the U.S. government's official web portal to all federal, state and local government web resources and services.